Lewisburg, Pennsylvania
Current Conditions -  °F | °C
As of 6:53 PM on Sunday 21 Dec 2014 (Local Time) from KSEG Reporting Station
Clear Clear  
Wind Chill: 25°   Ceiling: Unl
Heat Index: 25°   Visibility: 9mi
Dew Point: 21°   Wind: 0mph
Humidity: 85%   Direction: NA
Pressure: 30.34"   Gusts: NA
Location:  40.96°N, 76.89°W
Report Text: KSEG 212353Z AUTO 00000KT 9SM CLR M04/M06 A3034 RMK AO2 SLP280 T10391061 10011 21039 53013
Loading
Personal Weather Stations






























Interactive Weather Map New forecast layout! Learn more

10-Day Weather Forecast

Advertisements
Track Severe Weather on mobile